Latest Weather Observations for Parndana

IDS60801

Issued at 5:31 pm CDT Tuesday 24 January 2017 (issued every 30 minutes, with the page automatically refreshed every 10 minutes)

About weather observations | Map of weather stations | Latest weather observations for SA | Other Formats
Station Details ID: 022843 Name: PARNDANA CFS AWS Lat: -35.79 Lon: 137.25 Height: 165.0 m
Data from the previous 72 hours. | See also: Recent months at Parndana
Date/Time
CDT
Temp
°C
App
Temp
°C
Dew
Point
°C
Rel
Hum
%
Delta-T
°C
Wind Press
QNH
hPa
Press
MSL
hPa
Rain since
9am
mm
Dir  Spd
km/h
Gust
km/h
Spd
kts
Gust
kts
24/05:30pm 19.0 14.8 8.1 49 5.7 S 20 24 11 13 - - -
24/05:00pm 19.4 14.9 6.8 44 6.4 S 20 32 11 17 - - 0.0
24/04:30pm 19.9 15.0 8.6 48 5.9 SSE 24 33 13 18 - - 0.0
24/04:00pm 20.2 15.7 8.5 47 6.2 S 22 32 12 17 - - 0.0
24/03:30pm 20.1 15.5 8.1 46 6.3 SSW 22 37 12 20 - - 0.0
24/03:00pm 21.7 17.8 9.6 46 6.6 S 20 28 11 15 - - 0.0
24/02:30pm 20.1 15.2 8.4 47 6.1 S 24 33 13 18 - - 0.0
24/02:00pm 20.3 16.5 9.2 49 5.9 S 19 30 10 16 - - 0.0
24/01:30pm 20.5 16.7 9.7 50 5.8 S 20 30 11 16 - - 0.0
24/01:00pm 19.1 14.9 8.1 49 5.7 S 20 32 11 17 - - 0.0
24/12:30pm 20.1 15.4 7.8 45 6.4 SSE 22 32 12 17 - - 0.0
24/12:00pm 19.9 15.6 7.9 46 6.2 SSW 20 30 11 16 - - 0.0
24/11:30am 19.7 15.2 8.4 48 5.9 S 22 33 12 18 - - 0.0
24/11:00am 19.8 15.6 9.7 52 5.4 S 22 30 12 16 - - 0.0
24/10:30am 19.1 14.6 8.7 51 5.5 S 22 30 12 16 - - 0.0
24/10:00am 18.7 13.0 8.4 51 5.4 SSW 28 37 15 20 - - 0.0
24/09:30am 18.5 13.8 9.3 55 4.9 S 24 39 13 21 - - 0.0
24/09:00am 17.5 12.5 9.4 59 4.3 SSW 26 33 14 18 - - 2.6
24/08:30am 16.7 11.3 9.4 62 3.8 S 28 37 15 20 - - 2.6
24/08:00am 16.0 12.2 9.9 67 3.2 SSW 20 33 11 18 - - 2.6
24/07:30am 15.0 11.4 9.8 71 2.7 SSW 19 26 10 14 - - 2.6
24/07:00am 14.1 10.5 9.9 76 2.2 S 19 24 10 13 - - 2.6
24/06:30am 13.9 10.0 9.5 75 2.3 SSW 20 28 11 15 - - 2.6
24/06:00am 13.9 10.1 9.7 76 2.2 SSW 20 26 11 14 - - 2.6
24/05:30am 14.3 10.7 10.5 78 2.0 SSW 20 28 11 15 - - 2.6
24/05:00am 14.6 10.9 11.6 82 1.6 SSW 22 30 12 16 - - 2.6
24/04:30am 14.6 11.8 11.2 80 1.8 SSW 17 24 9 13 - - 2.6
24/04:00am 15.1 11.6 12.1 82 1.6 SSW 22 30 12 16 - - 2.6
24/03:30am 15.2 12.3 12.2 82 1.6 SSW 19 24 10 13 - - 2.6
24/03:00am 15.3 11.7 11.9 80 1.9 SSW 22 32 12 17 - - 2.6
24/02:30am 15.5 11.5 11.9 79 2.0 SSW 24 33 13 18 - - 2.6
24/02:00am 15.6 11.6 11.8 78 2.1 SSW 24 33 13 18 - - 2.6
24/01:30am 16.2 12.4 13.7 85 1.4 SW 26 39 14 21 - - 2.6
24/01:00am 16.5 14.1 14.5 88 1.2 SW 20 28 11 15 - - 2.6
24/12:30am 16.5 13.0 14.5 88 1.2 SW 26 39 14 21 - - 2.6
24/12:00am 16.7 13.3 14.7 88 1.2 SW 26 39 14 21 - - 2.6
 
Date/Time
CDT
Temp
°C
App
Temp
°C
Dew
Point
°C
Rel
Hum
%
Delta-T
°C
Wind Press
QNH
hPa
Press
MSL
hPa
Rain since
9am
mm
Dir  Spd
km/h
Gust
km/h
Spd
kts
Gust
kts
23/11:30pm 16.6 13.9 14.6 88 1.2 SW 22 33 12 18 - - 2.6
23/11:00pm 16.9 14.6 14.7 87 1.3 SW 20 33 11 18 - - 2.6
23/10:30pm 17.3 15.7 14.9 86 1.4 SW 17 24 9 13 - - 2.6
23/10:00pm 17.8 15.4 15.4 86 1.4 SW 22 33 12 18 - - 2.6
23/09:30pm 18.0 15.9 16.2 89 1.1 WSW 22 32 12 17 - - 2.6
23/09:00pm 18.9 17.6 17.2 90 1.0 WSW 20 28 11 15 - - 2.6
23/08:30pm 19.6 17.7 17.6 88 1.2 WSW 24 32 13 17 - - 2.6
23/08:00pm 20.4 18.7 18.0 86 1.5 WSW 24 35 13 19 - - 2.6
23/07:30pm 21.0 22.0 19.5 91 1.0 W 13 19 7 10 - - 2.6
23/07:00pm 20.8 22.2 19.6 93 0.8 WNW 11 15 6 8 - - 2.6
23/06:30pm 20.7 22.2 19.7 94 0.6 WNW 11 17 6 9 - - 2.6
23/06:00pm 20.5 20.4 19.5 94 0.6 WNW 19 26 10 14 - - 2.6
23/05:30pm 20.5 21.3 19.8 96 0.4 NW 15 20 8 11 - - 2.6
23/05:00pm 20.2 20.4 19.4 95 0.5 NW 17 22 9 12 - - 2.6
23/04:30pm 20.6 22.0 19.6 94 0.6 NNW 11 17 6 9 - - 2.6
23/04:00pm 20.3 21.5 19.1 93 0.8 NNW 11 15 6 8 - - 2.4
23/03:30pm 20.7 21.3 19.4 92 0.8 N 15 20 8 11 - - 2.4
23/03:00pm 21.0 22.8 19.5 91 1.0 NNW 9 15 5 8 - - 2.2
23/02:30pm 20.5 21.6 18.8 90 1.1 NW 11 13 6 7 - - 2.2
23/02:00pm 20.3 21.4 18.1 87 1.4 NW 9 15 5 8 - - 1.8
23/01:30pm 20.7 21.8 17.9 84 1.7 NNW 9 13 5 7 - - 1.6
23/01:00pm 19.7 20.6 17.5 87 1.4 N 9 15 5 8 - - 1.6
23/12:30pm 20.4 21.1 18.0 86 1.5 NNW 11 15 6 8 - - 0.6
23/12:00pm 21.6 22.1 17.4 77 2.6 WNW 11 15 6 8 - - 0.2
23/11:30am 22.4 23.3 17.5 74 3.0 NW 9 15 5 8 - - 0.2
23/11:00am 20.9 22.4 17.7 82 2.0 NNW 6 7 3 4 - - 0.2
23/10:30am 20.8 21.9 17.2 80 2.2 NNE 7 11 4 6 - - 0.0
23/10:00am 20.6 21.8 16.8 79 2.3 SSW 6 7 3 4 - - 0.0
23/09:30am 20.3 20.9 16.7 80 2.2 SSW 9 13 5 7 - - 0.0
23/09:00am 20.4 20.8 17.2 82 2.0 SW 11 19 6 10 - - 0.8
23/08:30am 20.8 22.7 17.6 82 2.0 SE 4 7 2 4 - - 0.8
23/08:00am 19.3 21.4 17.1 87 1.3 ENE 2 4 1 2 - - 0.8
23/07:30am 18.9 20.2 17.0 89 1.2 S 6 9 3 5 - - 0.8
23/07:00am 19.1 20.7 16.9 87 1.3 SW 4 6 2 3 - - 0.6
23/06:30am 19.3 20.4 16.5 84 1.7 SSW 6 13 3 7 - - 0.6
23/06:00am 19.5 20.1 15.2 76 2.5 ESE 6 11 3 6 - - 0.6
23/05:30am 20.2 21.2 15.4 74 2.9 SSE 4 9 2 5 - - 0.4
23/05:00am 20.0 20.6 15.4 75 2.7 SE 6 7 3 4 - - 0.4
23/04:30am 20.4 20.9 15.0 71 3.2 ESE 6 9 3 5 - - 0.4
23/04:00am 20.4 20.1 14.5 69 3.5 E 9 13 5 7 - - 0.4
23/03:30am 20.4 20.3 15.0 71 3.2 E 9 11 5 6 - - 0.4
23/03:00am 20.3 21.4 15.5 74 2.9 E 4 7 2 4 - - 0.4
23/02:30am 20.1 20.7 15.9 77 2.5 E 7 9 4 5 - - 0.4
23/02:00am 20.1 21.5 16.5 80 2.2 ESE 4 11 2 6 - - 0.4
23/01:30am 19.9 22.3 17.1 84 1.7 CALM 0 0 0 0 - - 0.4
23/01:00am 19.7 21.6 16.7 83 1.8 NNE 2 2 1 1 - - 0.4
23/12:30am 19.6 20.8 16.8 84 1.7 NE 6 6 3 3 - - 0.4
23/12:00am 19.6 21.0 16.3 81 2.0 E 4 6 2 3 - - 0.4
 
Date/Time
CDT
Temp
°C
App
Temp
°C
Dew
Point
°C
Rel
Hum
%
Delta-T
°C
Wind Press
QNH
hPa
Press
MSL
hPa
Rain since
9am
mm
Dir  Spd
km/h
Gust
km/h
Spd
kts
Gust
kts
22/11:30pm 19.6 21.8 16.4 82 1.9 CALM 0 0 0 0 - - 0.4
22/11:00pm 19.5 20.4 16.2 81 2.0 SE 6 7 3 4 - - 0.4
22/10:30pm 19.5 20.6 16.5 83 1.8 S 6 7 3 4 - - 0.4
22/10:00pm 19.6 20.4 16.4 82 1.9 S 7 9 4 5 - - 0.4
22/09:30pm 19.6 21.0 16.4 82 1.9 SSW 4 6 2 3 - - 0.4
22/09:00pm 19.4 20.1 16.2 82 1.9 S 7 9 4 5 - - 0.4
22/08:30pm 19.4 20.7 16.1 81 2.0 S 4 9 2 5 - - 0.4
22/08:00pm 19.5 20.0 16.5 83 1.8 SW 9 15 5 8 - - 0.4
22/07:30pm 19.7 19.3 16.2 80 2.1 WNW 13 17 7 9 - - 0.4
22/07:00pm 22.2 21.7 14.8 63 4.4 WNW 11 15 6 8 - - 0.0
22/06:30pm 24.0 21.6 11.3 45 7.2 NW 15 20 8 11 - - 0.0
22/06:00pm 25.6 23.0 10.6 39 8.4 WNW 15 20 8 11 - - 0.0
22/05:30pm 26.7 23.0 9.5 34 9.6 NW 19 26 10 14 - - 0.0
22/05:00pm 28.8 24.7 8.5 28 11.2 NW 20 26 11 14 - - 0.0
22/04:30pm 29.6 25.8 7.5 25 12.0 NW 17 24 9 13 - - 0.0
22/04:00pm 29.0 25.0 8.1 27 11.5 NW 19 22 10 12 - - 0.0
22/03:30pm 29.1 25.3 7.7 26 11.7 NW 17 26 9 14 - - 0.0
22/03:00pm 29.7 25.5 7.6 25 12.1 N 19 28 10 15 - - 0.0
22/02:30pm 30.2 26.1 8.0 25 12.2 NNW 19 26 10 14 - - 0.0
22/02:00pm 30.0 25.7 7.2 24 12.4 NNW 19 24 10 13 - - 0.0
22/01:30pm 32.0 28.2 8.9 24 13.0 N 19 28 10 15 - - 0.0
22/01:00pm 30.1 25.4 7.9 25 12.2 NNW 22 32 12 17 - - 0.0
22/12:30pm 30.0 25.5 8.4 26 12.0 N 22 32 12 17 - - 0.0
22/12:00pm 29.1 24.4 9.3 29 11.1 NNW 24 33 13 18 - - 0.0
22/11:30am 29.9 25.9 8.9 27 11.7 N 20 33 11 18 - - 0.0
22/11:00am 27.5 23.5 8.4 30 10.5 N 19 28 10 15 - - 0.0
22/10:30am 27.7 23.8 9.5 32 10.2 NNE 20 26 11 14 - - 0.0
22/10:00am 25.6 23.6 13.8 48 7.0 NNE 17 24 9 13 - - 0.0
22/09:30am 23.3 22.6 15.4 61 4.8 NNE 13 19 7 10 - - 0.0
22/09:00am 21.9 21.9 16.2 70 3.5 NNE 11 17 6 9 - - 0.0
22/08:30am 18.7 19.3 16.7 88 1.2 NE 9 13 5 7 - - 0.0
22/08:00am 16.9 18.3 16.3 96 0.4 NNE 4 6 2 3 - - 0.0
22/07:30am 15.1 15.4 14.6 97 0.3 NW 6 6 3 3 - - 0.0
22/07:00am 12.3 12.1 11.7 96 0.3 W 4 6 2 3 - - 0.0
22/06:30am 14.0 14.7 13.5 97 0.3 NE 2 6 1 3 - - 0.0
22/06:00am 13.4 12.9 12.8 96 0.3 ENE 7 9 4 5 - - 0.0
22/05:30am 13.4 13.1 12.8 96 0.3 E 6 6 3 3 - - 0.0
22/05:00am 13.2 12.9 12.6 96 0.3 ESE 6 6 3 3 - - 0.0
22/04:30am 13.2 13.3 12.6 96 0.3 ESE 4 6 2 3 - - 0.0
22/04:00am 13.3 12.9 12.5 95 0.4 ESE 6 6 3 3 - - 0.0
22/03:30am 13.4 12.9 12.8 96 0.3 ESE 7 9 4 5 - - 0.0
22/03:00am 13.5 13.0 12.7 95 0.4 ESE 7 11 4 6 - - 0.0
22/02:30am 13.9 12.8 13.1 95 0.4 E 11 15 6 8 - - 0.0
22/02:00am 13.7 12.5 12.9 95 0.4 E 11 13 6 7 - - 0.0
22/01:30am 13.5 13.2 12.6 94 0.5 ESE 6 7 3 4 - - 0.0
22/01:00am 12.8 12.0 11.7 93 0.6 SE 7 9 4 5 - - 0.0
22/12:30am 13.0 12.3 11.9 93 0.6 SE 7 9 4 5 - - 0.0
22/12:00am 13.1 12.5 11.8 92 0.7 SE 6 7 3 4 - - 0.0
 
Date/Time
CDT
Temp
°C
App
Temp
°C
Dew
Point
°C
Rel
Hum
%
Delta-T
°C
Wind Press
QNH
hPa
Press
MSL
hPa
Rain since
9am
mm
Dir  Spd
km/h
Gust
km/h
Spd
kts
Gust
kts
21/11:30pm 13.5 12.4 12.1 91 0.8 SE 9 11 5 6 - - 0.0
21/11:00pm 14.1 12.8 12.5 90 0.9 SE 11 15 6 8 - - 0.0
21/10:30pm 14.2 12.5 12.4 89 1.0 ESE 13 17 7 9 - - 0.0
21/10:00pm 14.7 12.3 12.7 88 1.1 ESE 17 22 9 12 - - 0.0
21/09:30pm 15.1 13.1 12.6 85 1.4 SE 15 20 8 11 - - 0.0
21/09:00pm 15.8 12.8 12.4 80 1.9 SE 20 26 11 14 - - 0.0
21/08:30pm 16.9 13.9 12.4 75 2.5 SE 20 28 11 15 - - 0.0
21/08:00pm 18.2 15.2 12.6 70 3.1 SE 20 30 11 16 - - 0.0
21/07:30pm 19.3 15.8 12.3 64 3.9 SE 22 30 12 16 - - 0.0
21/07:00pm 20.2 17.5 13.6 66 3.8 SSE 20 26 11 14 - - 0.0
21/06:30pm 21.6 18.8 13.2 59 4.9 SE 20 28 11 15 - - 0.0
21/06:00pm 21.0 18.1 12.2 57 5.0 SE 19 26 10 14 - - 0.0

Other Formats:

Comma delimited format used in spreadsheet applications
http://www.bom.gov.au/fwo/IDS60801/IDS60801.94807.axf

JavaScript Object Notation format (JSON) in row-major order
http://www.bom.gov.au/fwo/IDS60801/IDS60801.94807.json